sensor_id;sensor_type;location;lat;lon;timestamp;pressure;altitude;pressure_sealevel;temperature;humidity
70198;BME280;57582;-34.876;138.628;2023-07-02T00:02:58;102896;;;11.54;71.92
70198;BME280;57582;-34.876;138.628;2023-07-02T00:05:57;102897;;;11.50;72.04
70198;BME280;57582;-34.876;138.628;2023-07-02T00:08:57;102901;;;11.59;72.89
70198;BME280;57582;-34.876;138.628;2023-07-02T00:11:58;102900;;;11.76;72.27
70198;BME280;57582;-34.876;138.628;2023-07-02T00:14:57;102898;;;11.92;72.04
70198;BME280;57582;-34.876;138.628;2023-07-02T00:17:57;102895;;;11.85;70.68
70198;BME280;57582;-34.876;138.628;2023-07-02T00:20:57;102899;;;11.83;69.94
70198;BME280;57582;-34.876;138.628;2023-07-02T00:23:58;102890;;;12.03;70.42
70198;BME280;57582;-34.876;138.628;2023-07-02T00:26:57;102896;;;11.89;69.39
70198;BME280;57582;-34.876;138.628;2023-07-02T00:29:57;102885;;;11.92;69.76
70198;BME280;57582;-34.876;138.628;2023-07-02T00:32:57;102875;;;11.97;70.01
70198;BME280;57582;-34.876;138.628;2023-07-02T00:35:58;102874;;;11.99;70.32
70198;BME280;57582;-34.876;138.628;2023-07-02T00:38:57;102878;;;12.27;70.50
70198;BME280;57582;-34.876;138.628;2023-07-02T00:42:01;102870;;;12.50;69.15
70198;BME280;57582;-34.876;138.628;2023-07-02T00:44:57;102874;;;12.60;69.12
70198;BME280;57582;-34.876;138.628;2023-07-02T00:47:58;102873;;;12.34;68.33
70198;BME280;57582;-34.876;138.628;2023-07-02T00:50:57;102868;;;12.18;67.81
70198;BME280;57582;-34.876;138.628;2023-07-02T00:53:58;102875;;;12.22;67.33
70198;BME280;57582;-34.876;138.628;2023-07-02T00:56:57;102871;;;12.55;67.82
70198;BME280;57582;-34.876;138.628;2023-07-02T00:59:58;102862;;;12.81;66.00
70198;BME280;57582;-34.876;138.628;2023-07-02T01:02:57;102853;;;12.86;66.09
70198;BME280;57582;-34.876;138.628;2023-07-02T01:05:57;102859;;;13.08;65.12
70198;BME280;57582;-34.876;138.628;2023-07-02T01:08:58;102855;;;12.71;63.96
70198;BME280;57582;-34.876;138.628;2023-07-02T01:11:59;102854;;;12.58;65.11
70198;BME280;57582;-34.876;138.628;2023-07-02T01:14:58;102850;;;12.68;65.90
70198;BME280;57582;-34.876;138.628;2023-07-02T01:17:57;102848;;;12.76;64.56
70198;BME280;57582;-34.876;138.628;2023-07-02T01:20:57;102854;;;12.58;65.72
70198;BME280;57582;-34.876;138.628;2023-07-02T01:23:59;102864;;;12.41;65.93
70198;BME280;57582;-34.876;138.628;2023-07-02T01:26:57;102869;;;12.25;65.83
70198;BME280;57582;-34.876;138.628;2023-07-02T01:29:57;102870;;;12.16;66.24
70198;BME280;57582;-34.876;138.628;2023-07-02T01:32:57;102873;;;12.27;66.88
70198;BME280;57582;-34.876;138.628;2023-07-02T01:35:58;102872;;;12.30;66.26
70198;BME280;57582;-34.876;138.628;2023-07-02T01:38:57;102871;;;12.58;65.97
70198;BME280;57582;-34.876;138.628;2023-07-02T01:44:57;102863;;;12.94;65.18
70198;BME280;57582;-34.876;138.628;2023-07-02T01:47:58;102863;;;12.91;65.16
70198;BME280;57582;-34.876;138.628;2023-07-02T01:50:57;102861;;;12.93;64.91
70198;BME280;57582;-34.876;138.628;2023-07-02T01:53:57;102860;;;12.91;65.09
70198;BME280;57582;-34.876;138.628;2023-07-02T01:56:57;102855;;;12.90;64.62
70198;BME280;57582;-34.876;138.628;2023-07-02T01:59:58;102858;;;13.06;64.79
70198;BME280;57582;-34.876;138.628;2023-07-02T02:02:57;102853;;;12.89;64.71
70198;BME280;57582;-34.876;138.628;2023-07-02T02:05:57;102842;;;13.11;64.33
70198;BME280;57582;-34.876;138.628;2023-07-02T02:08:57;102846;;;13.26;62.87
70198;BME280;57582;-34.876;138.628;2023-07-02T02:11:58;102830;;;13.36;62.92
70198;BME280;57582;-34.876;138.628;2023-07-02T02:14:57;102835;;;13.61;63.13
70198;BME280;57582;-34.876;138.628;2023-07-02T02:17:57;102826;;;13.33;61.28
70198;BME280;57582;-34.876;138.628;2023-07-02T02:20:57;102828;;;13.06;62.81
70198;BME280;57582;-34.876;138.628;2023-07-02T02:23:58;102827;;;13.12;65.44
70198;BME280;57582;-34.876;138.628;2023-07-02T02:26:57;102810;;;13.43;65.85
70198;BME280;57582;-34.876;138.628;2023-07-02T02:29:57;102805;;;14.01;63.79
70198;BME280;57582;-34.876;138.628;2023-07-02T02:32:57;102800;;;13.69;60.97
70198;BME280;57582;-34.876;138.628;2023-07-02T02:35:58;102792;;;13.44;61.98
70198;BME280;57582;-34.876;138.628;2023-07-02T02:38:57;102791;;;13.21;61.98
70198;BME280;57582;-34.876;138.628;2023-07-02T02:41:57;102792;;;13.09;63.15
70198;BME280;57582;-34.876;138.628;2023-07-02T02:44:57;102793;;;13.23;62.81
70198;BME280;57582;-34.876;138.628;2023-07-02T02:47:58;102781;;;13.16;62.84
70198;BME280;57582;-34.876;138.628;2023-07-02T02:50:57;102775;;;13.41;62.43
70198;BME280;57582;-34.876;138.628;2023-07-02T02:53:57;102763;;;13.70;62.53
70198;BME280;57582;-34.876;138.628;2023-07-02T02:56:57;102759;;;13.90;61.04
70198;BME280;57582;-34.876;138.628;2023-07-02T02:59:58;102755;;;13.81;59.55
70198;BME280;57582;-34.876;138.628;2023-07-02T03:02:58;102752;;;13.21;60.90
70198;BME280;57582;-34.876;138.628;2023-07-02T03:05:57;102752;;;13.31;62.07
70198;BME280;57582;-34.876;138.628;2023-07-02T03:08:57;102751;;;13.40;62.90
70198;BME280;57582;-34.876;138.628;2023-07-02T03:11:58;102751;;;13.64;62.55
70198;BME280;57582;-34.876;138.628;2023-07-02T03:14:57;102750;;;13.52;61.11
70198;BME280;57582;-34.876;138.628;2023-07-02T03:17:58;102752;;;13.57;62.34
70198;BME280;57582;-34.876;138.628;2023-07-02T03:20:58;102730;;;13.72;62.21
70198;BME280;57582;-34.876;138.628;2023-07-02T03:23:59;102715;;;14.03;61.70
70198;BME280;57582;-34.876;138.628;2023-07-02T03:26:57;102709;;;13.73;61.29
70198;BME280;57582;-34.876;138.628;2023-07-02T03:29:57;102703;;;13.50;60.63
70198;BME280;57582;-34.876;138.628;2023-07-02T03:32:57;102703;;;13.63;61.23
70198;BME280;57582;-34.876;138.628;2023-07-02T03:35:58;102693;;;13.59;61.27
70198;BME280;57582;-34.876;138.628;2023-07-02T03:38:58;102692;;;13.33;61.28
70198;BME280;57582;-34.876;138.628;2023-07-02T03:41:57;102697;;;13.54;62.16
70198;BME280;57582;-34.876;138.628;2023-07-02T03:44:57;102685;;;13.79;61.55
70198;BME280;57582;-34.876;138.628;2023-07-02T03:47:59;102689;;;14.09;61.29
70198;BME280;57582;-34.876;138.628;2023-07-02T03:50:57;102680;;;14.29;59.83
70198;BME280;57582;-34.876;138.628;2023-07-02T03:53:58;102678;;;13.91;59.41
70198;BME280;57582;-34.876;138.628;2023-07-02T03:56:57;102673;;;13.80;60.46
70198;BME280;57582;-34.876;138.628;2023-07-02T03:59:58;102665;;;13.78;60.33
70198;BME280;57582;-34.876;138.628;2023-07-02T04:02:57;102656;;;13.54;60.93
70198;BME280;57582;-34.876;138.628;2023-07-02T04:05:57;102659;;;13.24;60.23
70198;BME280;57582;-34.876;138.628;2023-07-02T04:08:57;102642;;;13.47;62.49
70198;BME280;57582;-34.876;138.628;2023-07-02T04:11:59;102648;;;13.88;61.43
70198;BME280;57582;-34.876;138.628;2023-07-02T04:14:57;102649;;;13.90;60.35
70198;BME280;57582;-34.876;138.628;2023-07-02T04:17:57;102637;;;14.36;60.23
70198;BME280;57582;-34.876;138.628;2023-07-02T04:20:58;102626;;;14.42;56.53
70198;BME280;57582;-34.876;138.628;2023-07-02T04:23:58;102619;;;14.58;57.18
70198;BME280;57582;-34.876;138.628;2023-07-02T04:26:57;102614;;;14.73;54.95
70198;BME280;57582;-34.876;138.628;2023-07-02T04:29:57;102609;;;14.59;55.84
70198;BME280;57582;-34.876;138.628;2023-07-02T04:32:57;102611;;;14.60;56.33
70198;BME280;57582;-34.876;138.628;2023-07-02T04:35:58;102609;;;14.78;56.53
70198;BME280;57582;-34.876;138.628;2023-07-02T04:38:57;102602;;;14.89;54.95
70198;BME280;57582;-34.876;138.628;2023-07-02T04:41:58;102602;;;14.92;54.06
70198;BME280;57582;-34.876;138.628;2023-07-02T04:44:57;102592;;;14.30;55.42
70198;BME280;57582;-34.876;138.628;2023-07-02T04:47:59;102589;;;14.07;56.59
70198;BME280;57582;-34.876;138.628;2023-07-02T04:50:57;102587;;;14.03;56.34
70198;BME280;57582;-34.876;138.628;2023-07-02T04:53:57;102587;;;14.09;56.77
70198;BME280;57582;-34.876;138.628;2023-07-02T04:56:58;102591;;;14.26;56.53
70198;BME280;57582;-34.876;138.628;2023-07-02T04:59:58;102591;;;14.11;56.61
70198;BME280;57582;-34.876;138.628;2023-07-02T05:02:57;102586;;;14.16;57.71
70198;BME280;57582;-34.876;138.628;2023-07-02T05:05:58;102581;;;14.36;56.65
70198;BME280;57582;-34.876;138.628;2023-07-02T05:08:58;102579;;;14.18;57.23
70198;BME280;57582;-34.876;138.628;2023-07-02T05:11:58;102573;;;14.47;57.16
70198;BME280;57582;-34.876;138.628;2023-07-02T05:14:58;102574;;;14.44;56.10
70198;BME280;57582;-34.876;138.628;2023-07-02T05:17:58;102572;;;13.92;55.78
70198;BME280;57582;-34.876;138.628;2023-07-02T05:20:58;102573;;;13.77;57.12
70198;BME280;57582;-34.876;138.628;2023-07-02T05:23:58;102564;;;13.48;58.00
70198;BME280;57582;-34.876;138.628;2023-07-02T05:26:58;102562;;;13.37;58.92
70198;BME280;57582;-34.876;138.628;2023-07-02T05:29:58;102552;;;13.60;59.18
70198;BME280;57582;-34.876;138.628;2023-07-02T05:32:58;102549;;;13.75;58.15
70198;BME280;57582;-34.876;138.628;2023-07-02T05:35:58;102546;;;13.74;56.72
70198;BME280;57582;-34.876;138.628;2023-07-02T05:38:58;102540;;;13.93;57.01
70198;BME280;57582;-34.876;138.628;2023-07-02T05:41:58;102530;;;14.15;56.16
70198;BME280;57582;-34.876;138.628;2023-07-02T05:44:58;102532;;;14.41;54.96
70198;BME280;57582;-34.876;138.628;2023-07-02T05:47:58;102534;;;14.38;54.90
70198;BME280;57582;-34.876;138.628;2023-07-02T05:50:58;102530;;;14.30;55.11
70198;BME280;57582;-34.876;138.628;2023-07-02T05:53:58;102530;;;14.38;55.49
70198;BME280;57582;-34.876;138.628;2023-07-02T05:56:58;102523;;;14.40;54.42
70198;BME280;57582;-34.876;138.628;2023-07-02T05:59:58;102523;;;14.67;55.00
70198;BME280;57582;-34.876;138.628;2023-07-02T06:02:58;102530;;;14.91;53.48
70198;BME280;57582;-34.876;138.628;2023-07-02T06:05:58;102530;;;14.59;53.51
70198;BME280;57582;-34.876;138.628;2023-07-02T06:08:58;102521;;;14.13;55.47
70198;BME280;57582;-34.876;138.628;2023-07-02T06:11:59;102523;;;14.37;56.16
70198;BME280;57582;-34.876;138.628;2023-07-02T06:14:58;102522;;;14.44;55.96
70198;BME280;57582;-34.876;138.628;2023-07-02T06:17:58;102521;;;14.42;56.19
70198;BME280;57582;-34.876;138.628;2023-07-02T06:20:58;102528;;;14.61;55.92
70198;BME280;57582;-34.876;138.628;2023-07-02T06:24:00;102531;;;14.50;55.60
70198;BME280;57582;-34.876;138.628;2023-07-02T06:26:58;102519;;;14.57;55.99
70198;BME280;57582;-34.876;138.628;2023-07-02T06:29:58;102519;;;14.78;55.23
70198;BME280;57582;-34.876;138.628;2023-07-02T06:32:58;102524;;;15.03;54.98
70198;BME280;57582;-34.876;138.628;2023-07-02T06:35:58;102513;;;15.30;54.65
70198;BME280;57582;-34.876;138.628;2023-07-02T06:38:58;102512;;;15.54;53.54
70198;BME280;57582;-34.876;138.628;2023-07-02T06:41:58;102512;;;15.73;53.14
70198;BME280;57582;-34.876;138.628;2023-07-02T06:44:58;102512;;;15.89;52.10
70198;BME280;57582;-34.876;138.628;2023-07-02T06:47:58;102511;;;15.76;51.56
70198;BME280;57582;-34.876;138.628;2023-07-02T06:50:58;102509;;;15.75;52.12
70198;BME280;57582;-34.876;138.628;2023-07-02T06:53:58;102510;;;15.83;52.26
70198;BME280;57582;-34.876;138.628;2023-07-02T06:56:58;102511;;;15.92;52.09
70198;BME280;57582;-34.876;138.628;2023-07-02T06:59:59;102503;;;15.21;52.16
70198;BME280;57582;-34.876;138.628;2023-07-02T07:02:58;102513;;;14.44;54.21
70198;BME280;57582;-34.876;138.628;2023-07-02T07:05:58;102514;;;14.46;55.19
70198;BME280;57582;-34.876;138.628;2023-07-02T07:08:58;102513;;;14.45;54.75
70198;BME280;57582;-34.876;138.628;2023-07-02T07:11:58;102508;;;14.30;55.60
70198;BME280;57582;-34.876;138.628;2023-07-02T07:14:58;102523;;;14.46;55.07
70198;BME280;57582;-34.876;138.628;2023-07-02T07:17:58;102528;;;14.14;55.53
70198;BME280;57582;-34.876;138.628;2023-07-02T07:20:58;102526;;;14.05;56.10
70198;BME280;57582;-34.876;138.628;2023-07-02T07:23:59;102516;;;13.99;56.58
70198;BME280;57582;-34.876;138.628;2023-07-02T07:26:58;102512;;;14.11;56.27
70198;BME280;57582;-34.876;138.628;2023-07-02T07:29:58;102516;;;14.01;56.82
70198;BME280;57582;-34.876;138.628;2023-07-02T07:32:58;102514;;;13.85;57.32
70198;BME280;57582;-34.876;138.628;2023-07-02T07:35:58;102512;;;13.89;57.47
70198;BME280;57582;-34.876;138.628;2023-07-02T07:38:58;102514;;;13.71;57.91
70198;BME280;57582;-34.876;138.628;2023-07-02T07:41:58;102519;;;13.58;58.89
70198;BME280;57582;-34.876;138.628;2023-07-02T07:44:58;102508;;;13.77;59.13
70198;BME280;57582;-34.876;138.628;2023-07-02T07:47:59;102511;;;13.74;58.40
70198;BME280;57582;-34.876;138.628;2023-07-02T07:50:58;102512;;;13.71;58.53
70198;BME280;57582;-34.876;138.628;2023-07-02T07:53:58;102505;;;13.81;58.60
70198;BME280;57582;-34.876;138.628;2023-07-02T07:56:58;102505;;;13.77;58.21
70198;BME280;57582;-34.876;138.628;2023-07-02T07:59:58;102511;;;13.74;58.54
70198;BME280;57582;-34.876;138.628;2023-07-02T08:02:58;102512;;;13.87;58.61
70198;BME280;57582;-34.876;138.628;2023-07-02T08:05:58;102517;;;14.12;58.48
70198;BME280;57582;-34.876;138.628;2023-07-02T08:08:58;102529;;;14.01;58.39
70198;BME280;57582;-34.876;138.628;2023-07-02T08:11:58;102529;;;13.84;58.10
70198;BME280;57582;-34.876;138.628;2023-07-02T08:14:58;102533;;;13.55;58.94
70198;BME280;57582;-34.876;138.628;2023-07-02T08:17:58;102537;;;13.75;59.38
70198;BME280;57582;-34.876;138.628;2023-07-02T08:20:58;102526;;;13.96;59.21
70198;BME280;57582;-34.876;138.628;2023-07-02T08:23:58;102537;;;14.05;57.77
70198;BME280;57582;-34.876;138.628;2023-07-02T08:26:58;102535;;;13.99;58.36
70198;BME280;57582;-34.876;138.628;2023-07-02T08:29:58;102531;;;13.98;58.23
70198;BME280;57582;-34.876;138.628;2023-07-02T08:32:58;102543;;;13.90;58.16
70198;BME280;57582;-34.876;138.628;2023-07-02T08:35:58;102539;;;13.76;58.57
70198;BME280;57582;-34.876;138.628;2023-07-02T08:38:58;102542;;;13.70;58.88
70198;BME280;57582;-34.876;138.628;2023-07-02T08:41:58;102534;;;13.65;59.06
70198;BME280;57582;-34.876;138.628;2023-07-02T08:44:58;102537;;;13.67;59.29
70198;BME280;57582;-34.876;138.628;2023-07-02T08:47:58;102537;;;13.86;59.10
70198;BME280;57582;-34.876;138.628;2023-07-02T08:50:58;102544;;;13.95;58.73
70198;BME280;57582;-34.876;138.628;2023-07-02T08:53:58;102557;;;13.92;59.17
70198;BME280;57582;-34.876;138.628;2023-07-02T08:56:58;102558;;;13.98;59.34
70198;BME280;57582;-34.876;138.628;2023-07-02T08:59:58;102562;;;14.04;58.84
70198;BME280;57582;-34.876;138.628;2023-07-02T09:02:58;102565;;;13.45;60.28
70198;BME280;57582;-34.876;138.628;2023-07-02T09:05:58;102576;;;13.21;60.98
70198;BME280;57582;-34.876;138.628;2023-07-02T09:09:05;102583;;;12.87;61.64
70198;BME280;57582;-34.876;138.628;2023-07-02T09:11:58;102586;;;12.63;62.87
70198;BME280;57582;-34.876;138.628;2023-07-02T09:14:59;102588;;;12.29;64.24
70198;BME280;57582;-34.876;138.628;2023-07-02T09:17:59;102589;;;12.19;64.85
70198;BME280;57582;-34.876;138.628;2023-07-02T09:20:58;102586;;;12.17;64.94
70198;BME280;57582;-34.876;138.628;2023-07-02T09:23:59;102582;;;12.06;65.36
70198;BME280;57582;-34.876;138.628;2023-07-02T09:26:59;102582;;;12.28;65.22
70198;BME280;57582;-34.876;138.628;2023-07-02T09:29:58;102577;;;12.38;64.59
70198;BME280;57582;-34.876;138.628;2023-07-02T09:33:05;102569;;;12.20;64.77
70198;BME280;57582;-34.876;138.628;2023-07-02T09:35:59;102574;;;12.36;64.48
70198;BME280;57582;-34.876;138.628;2023-07-02T09:38:58;102568;;;12.48;64.00
70198;BME280;57582;-34.876;138.628;2023-07-02T09:41:59;102560;;;12.27;64.34
70198;BME280;57582;-34.876;138.628;2023-07-02T09:44:58;102558;;;12.15;64.67
70198;BME280;57582;-34.876;138.628;2023-07-02T09:47:58;102556;;;12.19;64.70
70198;BME280;57582;-34.876;138.628;2023-07-02T09:50:58;102547;;;12.12;64.88
70198;BME280;57582;-34.876;138.628;2023-07-02T09:53:58;102550;;;11.82;66.16
70198;BME280;57582;-34.876;138.628;2023-07-02T09:56:58;102560;;;11.89;65.73
70198;BME280;57582;-34.876;138.628;2023-07-02T09:59:59;102553;;;11.92;65.67
70198;BME280;57582;-34.876;138.628;2023-07-02T10:02:58;102551;;;12.00;65.07
70198;BME280;57582;-34.876;138.628;2023-07-02T10:06:06;102563;;;12.32;64.73
70198;BME280;57582;-34.876;138.628;2023-07-02T10:08:58;102562;;;12.40;63.61
70198;BME280;57582;-34.876;138.628;2023-07-02T10:11:58;102558;;;12.49;63.42
70198;BME280;57582;-34.876;138.628;2023-07-02T10:14:58;102558;;;12.45;63.01
70198;BME280;57582;-34.876;138.628;2023-07-02T10:17:58;102555;;;12.36;63.61
70198;BME280;57582;-34.876;138.628;2023-07-02T10:20:58;102556;;;12.40;63.76
70198;BME280;57582;-34.876;138.628;2023-07-02T10:24:16;102559;;;12.27;63.75
70198;BME280;57582;-34.876;138.628;2023-07-02T10:26:59;102552;;;12.39;63.72
70198;BME280;57582;-34.876;138.628;2023-07-02T10:29:58;102549;;;12.30;63.56
70198;BME280;57582;-34.876;138.628;2023-07-02T10:33:14;102543;;;12.30;63.82
70198;BME280;57582;-34.876;138.628;2023-07-02T10:35:59;102543;;;12.43;63.47
70198;BME280;57582;-34.876;138.628;2023-07-02T10:39:01;102539;;;12.59;63.11
70198;BME280;57582;-34.876;138.628;2023-07-02T10:42:06;102536;;;12.77;62.76
70198;BME280;57582;-34.876;138.628;2023-07-02T10:44:58;102530;;;12.86;62.52
70198;BME280;57582;-34.876;138.628;2023-07-02T10:47:58;102533;;;12.80;62.22
70198;BME280;57582;-34.876;138.628;2023-07-02T10:50:58;102526;;;12.82;62.21
70198;BME280;57582;-34.876;138.628;2023-07-02T10:53:59;102525;;;12.90;61.94
70198;BME280;57582;-34.876;138.628;2023-07-02T10:56:58;102516;;;13.02;61.89
70198;BME280;57582;-34.876;138.628;2023-07-02T11:00:08;102502;;;13.16;61.37
70198;BME280;57582;-34.876;138.628;2023-07-02T11:02:58;102496;;;13.29;60.85
70198;BME280;57582;-34.876;138.628;2023-07-02T11:05:58;102496;;;13.36;60.52
70198;BME280;57582;-34.876;138.628;2023-07-02T11:08:59;102497;;;13.40;60.44
70198;BME280;57582;-34.876;138.628;2023-07-02T11:12:00;102494;;;13.10;60.99
70198;BME280;57582;-34.876;138.628;2023-07-02T11:15:14;102483;;;13.06;61.19
70198;BME280;57582;-34.876;138.628;2023-07-02T11:18:08;102485;;;12.93;61.65
70198;BME280;57582;-34.876;138.628;2023-07-02T11:20:58;102478;;;12.81;61.67
70198;BME280;57582;-34.876;138.628;2023-07-02T11:24:02;102471;;;12.83;61.83
70198;BME280;57582;-34.876;138.628;2023-07-02T11:27:01;102467;;;12.82;61.55
70198;BME280;57582;-34.876;138.628;2023-07-02T11:29:59;102469;;;12.74;61.55
70198;BME280;57582;-34.876;138.628;2023-07-02T11:32:58;102435;;;12.49;62.07
70198;BME280;57582;-34.876;138.628;2023-07-02T11:35:59;102463;;;12.66;62.13
70198;BME280;57582;-34.876;138.628;2023-07-02T11:38:58;102461;;;12.55;62.31
70198;BME280;57582;-34.876;138.628;2023-07-02T11:41:58;102472;;;12.66;62.36
70198;BME280;57582;-34.876;138.628;2023-07-02T11:44:58;102471;;;12.74;61.95
70198;BME280;57582;-34.876;138.628;2023-07-02T11:47:59;102480;;;12.82;62.25
70198;BME280;57582;-34.876;138.628;2023-07-02T11:50:58;102483;;;12.82;61.76
70198;BME280;57582;-34.876;138.628;2023-07-02T11:53:58;102485;;;12.41;62.20
70198;BME280;57582;-34.876;138.628;2023-07-02T11:56:58;102485;;;12.29;62.71
70198;BME280;57582;-34.876;138.628;2023-07-02T11:59:59;102475;;;12.38;62.65
70198;BME280;57582;-34.876;138.628;2023-07-02T12:02:58;102478;;;12.46;62.36
70198;BME280;57582;-34.876;138.628;2023-07-02T12:05:58;102487;;;12.43;62.01
70198;BME280;57582;-34.876;138.628;2023-07-02T12:08:58;102487;;;12.26;62.74
70198;BME280;57582;-34.876;138.628;2023-07-02T12:11:59;102488;;;11.76;64.02
70198;BME280;57582;-34.876;138.628;2023-07-02T12:14:58;102486;;;11.33;65.67
70198;BME280;57582;-34.876;138.628;2023-07-02T12:17:58;102491;;;10.88;67.11
70198;BME280;57582;-34.876;138.628;2023-07-02T12:20:58;102482;;;10.64;68.35
70198;BME280;57582;-34.876;138.628;2023-07-02T12:23:59;102484;;;10.89;67.59
70198;BME280;57582;-34.876;138.628;2023-07-02T12:26:58;102487;;;10.45;69.30
70198;BME280;57582;-34.876;138.628;2023-07-02T12:29:58;102485;;;10.56;71.39
70198;BME280;57582;-34.876;138.628;2023-07-02T12:32:58;102482;;;10.72;68.83
70198;BME280;57582;-34.876;138.628;2023-07-02T12:35:59;102481;;;10.95;67.96
70198;BME280;57582;-34.876;138.628;2023-07-02T12:38:58;102483;;;10.92;68.06
70198;BME280;57582;-34.876;138.628;2023-07-02T12:41:58;102476;;;10.64;68.98
70198;BME280;57582;-34.876;138.628;2023-07-02T12:44:58;102477;;;10.58;69.04
70198;BME280;57582;-34.876;138.628;2023-07-02T12:47:59;102484;;;10.46;69.87
70198;BME280;57582;-34.876;138.628;2023-07-02T12:50:59;102479;;;10.43;69.99
70198;BME280;57582;-34.876;138.628;2023-07-02T12:53:58;102484;;;10.46;69.76
70198;BME280;57582;-34.876;138.628;2023-07-02T12:56:58;102481;;;10.26;70.42
70198;BME280;57582;-34.876;138.628;2023-07-02T12:59:59;102472;;;10.03;71.44
70198;BME280;57582;-34.876;138.628;2023-07-02T13:02:58;102474;;;10.09;71.55
70198;BME280;57582;-34.876;138.628;2023-07-02T13:05:58;102469;;;10.31;70.74
70198;BME280;57582;-34.876;138.628;2023-07-02T13:08:58;102461;;;10.45;70.52
70198;BME280;57582;-34.876;138.628;2023-07-02T13:11:59;102457;;;10.62;70.09
70198;BME280;57582;-34.876;138.628;2023-07-02T13:14:58;102450;;;10.80;69.31
70198;BME280;57582;-34.876;138.628;2023-07-02T13:17:58;102455;;;10.94;68.44
70198;BME280;57582;-34.876;138.628;2023-07-02T13:20:58;102455;;;10.89;68.23
70198;BME280;57582;-34.876;138.628;2023-07-02T13:23:59;102454;;;10.68;68.54
70198;BME280;57582;-34.876;138.628;2023-07-02T13:26:58;102444;;;10.62;69.00
70198;BME280;57582;-34.876;138.628;2023-07-02T13:29:58;102440;;;10.45;69.48
70198;BME280;57582;-34.876;138.628;2023-07-02T13:32:59;102439;;;10.35;70.14
70198;BME280;57582;-34.876;138.628;2023-07-02T13:36:00;102438;;;10.27;70.39
70198;BME280;57582;-34.876;138.628;2023-07-02T13:38:58;102444;;;10.23;70.81
70198;BME280;57582;-34.876;138.628;2023-07-02T13:41:58;102437;;;10.44;70.04
70198;BME280;57582;-34.876;138.628;2023-07-02T13:44:58;102444;;;10.34;70.33
70198;BME280;57582;-34.876;138.628;2023-07-02T13:47:59;102445;;;10.42;70.63
70198;BME280;57582;-34.876;138.628;2023-07-02T13:50:58;102437;;;10.44;70.33
70198;BME280;57582;-34.876;138.628;2023-07-02T13:53:58;102442;;;10.44;70.35
70198;BME280;57582;-34.876;138.628;2023-07-02T13:56:58;102446;;;10.27;71.08
70198;BME280;57582;-34.876;138.628;2023-07-02T13:59:59;102435;;;10.42;70.83
70198;BME280;57582;-34.876;138.628;2023-07-02T14:02:58;102425;;;10.76;70.20
70198;BME280;57582;-34.876;138.628;2023-07-02T14:05:58;102415;;;10.94;69.00
70198;BME280;57582;-34.876;138.628;2023-07-02T14:08:58;102426;;;10.64;69.81
70198;BME280;57582;-34.876;138.628;2023-07-02T14:11:59;102428;;;10.37;70.65
70198;BME280;57582;-34.876;138.628;2023-07-02T14:14:58;102424;;;10.32;71.26
70198;BME280;57582;-34.876;138.628;2023-07-02T14:17:58;102427;;;10.46;70.73
70198;BME280;57582;-34.876;138.628;2023-07-02T14:20:58;102423;;;10.23;71.30
70198;BME280;57582;-34.876;138.628;2023-07-02T14:23:59;102410;;;10.34;71.40
70198;BME280;57582;-34.876;138.628;2023-07-02T14:26:58;102407;;;10.29;71.21
70198;BME280;57582;-34.876;138.628;2023-07-02T14:29:58;102397;;;10.06;72.12
70198;BME280;57582;-34.876;138.628;2023-07-02T14:32:59;102402;;;9.77;73.55
70198;BME280;57582;-34.876;138.628;2023-07-02T14:35:59;102407;;;9.69;74.05
70198;BME280;57582;-34.876;138.628;2023-07-02T14:38:58;102412;;;9.81;73.80
70198;BME280;57582;-34.876;138.628;2023-07-02T14:41:58;102415;;;9.77;73.94
70198;BME280;57582;-34.876;138.628;2023-07-02T14:44:58;102401;;;10.00;73.39
70198;BME280;57582;-34.876;138.628;2023-07-02T14:47:59;102402;;;10.36;72.22
70198;BME280;57582;-34.876;138.628;2023-07-02T14:50:59;102398;;;10.72;71.30
70198;BME280;57582;-34.876;138.628;2023-07-02T14:53:59;102389;;;11.04;69.73
70198;BME280;57582;-34.876;138.628;2023-07-02T14:56:58;102393;;;11.29;68.39
70198;BME280;57582;-34.876;138.628;2023-07-02T14:59:59;102390;;;11.59;68.07
70198;BME280;57582;-34.876;138.628;2023-07-02T15:02:58;102391;;;11.82;66.72
70198;BME280;57582;-34.876;138.628;2023-07-02T15:06:15;102383;;;12.03;66.32
70198;BME280;57582;-34.876;138.628;2023-07-02T15:08:58;102383;;;12.15;65.14
70198;BME280;57582;-34.876;138.628;2023-07-02T15:11:59;102385;;;12.23;64.83
70198;BME280;57582;-34.876;138.628;2023-07-02T15:14:58;102377;;;12.44;64.61
70198;BME280;57582;-34.876;138.628;2023-07-02T15:17:58;102373;;;12.51;63.74
70198;BME280;57582;-34.876;138.628;2023-07-02T15:20:58;102373;;;12.54;63.63
70198;BME280;57582;-34.876;138.628;2023-07-02T15:23:59;102366;;;12.64;63.33
70198;BME280;57582;-34.876;138.628;2023-07-02T15:26:58;102374;;;12.64;62.75
70198;BME280;57582;-34.876;138.628;2023-07-02T15:29:58;102377;;;12.74;62.93
70198;BME280;57582;-34.876;138.628;2023-07-02T15:32:58;102367;;;12.79;62.56
70198;BME280;57582;-34.876;138.628;2023-07-02T15:36:00;102374;;;12.77;62.52
70198;BME280;57582;-34.876;138.628;2023-07-02T15:38:58;102377;;;12.82;62.44
70198;BME280;57582;-34.876;138.628;2023-07-02T15:41:59;102376;;;12.81;62.39
70198;BME280;57582;-34.876;138.628;2023-07-02T15:44:59;102369;;;12.77;62.53